Time;durP1;ratioP1;P1;durP2;ratioP2;P2;SDS_P1;SDS_P2;PMS_P1;PMS_P2;Temp;Humidity;BMP_temperature;BMP_pressure;BME280_temperature;BME280_humidity;BME280_pressure;Samples;Min_cycle;Max_cycle;Signal;HPM_P1;HPM_P2
2022/06/27 00:01:23;;;;;;;1999.90;999.90;;;17.60;99.90;;;;;;5054963;28;20217;-59
2022/06/27 00:03:50;;;;;;;1999.90;999.90;;;17.60;99.90;;;;;;5054284;28;20706;-60
2022/06/27 00:06:19;;;;;;;1999.90;999.90;;;17.60;99.90;;;;;;5054929;28;20203;-59
2022/06/27 00:08:48;;;;;;;1999.90;999.90;;;17.60;99.90;;;;;;5054695;28;20231;-59
2022/06/27 00:11:15;;;;;;;1999.90;999.90;;;17.60;99.90;;;;;;5054533;28;20585;-61
2022/06/27 00:13:42;;;;;;;1999.90;999.90;;;17.60;99.90;;;;;;5054427;28;20486;-59
2022/06/27 00:16:09;;;;;;;1999.90;999.90;;;17.60;99.90;;;;;;5054365;28;20212;-59
2022/06/27 00:18:37;;;;;;;1999.90;999.90;;;17.60;99.90;;;;;;5054679;28;20195;-60
2022/06/27 00:21:04;;;;;;;1999.90;999.90;;;17.60;99.90;;;;;;5054321;28;20683;-59
2022/06/27 00:23:31;;;;;;;1999.90;999.90;;;17.60;99.90;;;;;;5053849;28;20202;-60
2022/06/27 00:25:59;;;;;;;1999.90;999.90;;;17.60;99.90;;;;;;5054567;28;20199;-60
2022/06/27 00:28:26;;;;;;;1999.90;999.90;;;17.60;99.90;;;;;;5054410;28;20192;-59
2022/06/27 00:30:53;;;;;;;1999.90;999.90;;;17.60;99.90;;;;;;5054196;28;20520;-59
2022/06/27 00:33:20;;;;;;;1999.90;999.90;;;17.60;99.90;;;;;;5054066;28;20216;-60
2022/06/27 00:35:50;;;;;;;1999.90;999.90;;;17.60;99.90;;;;;;5054287;28;20208;-60
2022/06/27 00:38:18;;;;;;;1999.90;999.90;;;17.70;99.90;;;;;;5054408;28;20573;-61
2022/06/27 00:40:45;;;;;;;1999.90;999.90;;;17.70;99.90;;;;;;5053495;28;20217;-60
2022/06/27 00:43:12;;;;;;;1999.90;999.90;;;17.70;99.90;;;;;;5053940;28;20198;-60
2022/06/27 00:45:40;;;;;;;1999.90;999.90;;;17.70;99.90;;;;;;5054138;28;20211;-60
2022/06/27 00:48:07;;;;;;;1999.90;999.90;;;17.70;99.90;;;;;;5054184;28;20203;-60
2022/06/27 00:50:34;;;;;;;1999.90;999.90;;;17.70;99.90;;;;;;5052930;28;20540;-60
2022/06/27 00:53:03;;;;;;;1999.90;999.90;;;17.70;99.90;;;;;;5053717;28;20200;-60
2022/06/27 00:55:31;;;;;;;1999.90;999.90;;;17.70;99.90;;;;;;5053648;28;20198;-61
2022/06/27 00:57:59;;;;;;;1999.90;999.90;;;17.70;99.90;;;;;;5053476;28;20214;-60
2022/06/27 01:00:26;;;;;;;1999.90;999.90;;;17.70;99.90;;;;;;5053141;28;20206;-60
2022/06/27 01:02:53;;;;;;;1999.90;999.90;;;17.60;99.90;;;;;;5053657;28;20205;-59
2022/06/27 01:05:20;;;;;;;1999.90;999.90;;;17.60;99.90;;;;;;5053835;28;20199;-59
2022/06/27 01:07:47;;;;;;;1999.90;999.90;;;17.60;99.90;;;;;;5053451;28;20196;-60
2022/06/27 01:10:16;;;;;;;1999.90;999.90;;;17.60;99.90;;;;;;5053283;28;20238;-59
2022/06/27 01:12:43;;;;;;;1999.90;999.90;;;17.60;99.90;;;;;;5053621;28;20205;-59
2022/06/27 01:15:12;;;;;;;1999.90;999.90;;;17.60;99.90;;;;;;5053572;28;20235;-59
2022/06/27 01:17:40;;;;;;;1999.90;999.90;;;17.60;99.90;;;;;;5053534;28;20207;-60
2022/06/27 01:20:08;;;;;;;1999.90;999.90;;;17.60;99.90;;;;;;5053224;28;20210;-59
2022/06/27 01:22:37;;;;;;;1999.90;999.90;;;17.60;99.90;;;;;;5053390;28;20200;-59
2022/06/27 01:25:04;;;;;;;1999.90;999.90;;;17.60;99.90;;;;;;5053210;28;20553;-59
2022/06/27 01:27:31;;;;;;;1999.90;999.90;;;17.60;99.90;;;;;;5052930;28;20192;-60
2022/06/27 01:29:58;;;;;;;1999.90;999.90;;;17.60;99.90;;;;;;5053042;28;20200;-60
2022/06/27 01:32:25;;;;;;;1999.90;999.90;;;17.60;99.90;;;;;;5053014;28;20203;-59
2022/06/27 01:34:52;;;;;;;1999.90;999.90;;;17.60;99.90;;;;;;5053355;28;20198;-60
2022/06/27 01:37:20;;;;;;;1999.90;999.90;;;17.60;99.90;;;;;;5053050;28;20238;-59
2022/06/27 01:39:48;;;;;;;1999.90;999.90;;;17.60;99.90;;;;;;5052882;28;20558;-59
2022/06/27 01:42:16;;;;;;;1999.90;999.90;;;17.60;99.90;;;;;;5052835;28;20672;-60
2022/06/27 01:44:43;;;;;;;1999.90;999.90;;;17.50;99.90;;;;;;5052694;28;20741;-59
2022/06/27 01:47:11;;;;;;;1999.90;999.90;;;17.50;99.90;;;;;;5052742;28;20195;-59
2022/06/27 01:49:39;;;;;;;1999.90;999.90;;;17.50;99.90;;;;;;5052681;28;20195;-60
2022/06/27 01:52:07;;;;;;;1999.90;999.90;;;17.40;99.90;;;;;;5052896;28;20203;-60
2022/06/27 01:54:35;;;;;;;1999.90;999.90;;;17.40;99.90;;;;;;5052556;28;20206;-60
2022/06/27 01:57:04;;;;;;;1999.90;999.90;;;17.30;99.90;;;;;;5052317;28;20291;-60
2022/06/27 01:59:33;;;;;;;1999.90;999.90;;;17.30;99.90;;;;;;5052502;28;20201;-59
2022/06/27 02:02:00;;;;;;;1999.90;999.90;;;17.30;99.90;;;;;;5052634;28;20202;-60
2022/06/27 02:04:29;;;;;;;1999.90;999.90;;;17.30;99.90;;;;;;5052440;28;20217;-58
2022/06/27 02:06:56;;;;;;;1999.90;999.90;;;17.30;99.90;;;;;;5052439;28;20264;-60
2022/06/27 02:09:24;;;;;;;1999.90;999.90;;;17.30;99.90;;;;;;5052238;28;20239;-60
2022/06/27 02:11:55;;;;;;;1999.90;999.90;;;17.30;99.90;;;;;;5052667;28;20203;-59
2022/06/27 02:14:24;;;;;;;1999.90;999.90;;;17.30;99.90;;;;;;5052461;28;20264;-60
2022/06/27 02:16:51;;;;;;;1999.90;999.90;;;17.30;99.90;;;;;;5052327;28;20226;-60
2022/06/27 02:19:20;;;;;;;1999.90;999.90;;;17.30;99.90;;;;;;5052386;28;20203;-59
2022/06/27 02:21:48;;;;;;;1999.90;999.90;;;17.30;99.90;;;;;;5052396;28;20203;-59
2022/06/27 02:24:16;;;;;;;1999.90;999.90;;;17.30;99.90;;;;;;5052441;28;20196;-59
2022/06/27 02:26:43;;;;;;;1999.90;999.90;;;17.40;99.90;;;;;;5051957;28;20197;-60
2022/06/27 02:29:10;;;;;;;1999.90;999.90;;;17.40;99.90;;;;;;5052102;28;20207;-59
2022/06/27 02:31:46;;;;;;;1999.90;999.90;;;17.30;99.90;;;;;;5051989;28;20199;-60
2022/06/27 02:34:14;;;;;;;1999.90;999.90;;;17.30;99.90;;;;;;5052386;28;20195;-59
2022/06/27 02:36:42;;;;;;;1999.90;999.90;;;17.30;99.90;;;;;;5052140;28;20215;-59
2022/06/27 02:39:13;;;;;;;1999.90;999.90;;;17.30;99.90;;;;;;5052209;28;20202;-59
2022/06/27 02:41:41;;;;;;;1999.90;999.90;;;17.30;99.90;;;;;;5052074;28;20187;-60
2022/06/27 02:44:11;;;;;;;1999.90;999.90;;;17.30;99.90;;;;;;5052182;28;20193;-60
2022/06/27 02:46:39;;;;;;;1999.90;999.90;;;17.30;99.90;;;;;;5052054;28;20191;-59
2022/06/27 02:49:10;;;;;;;1999.90;999.90;;;17.30;99.90;;;;;;5052085;28;20217;-59
2022/06/27 02:51:41;;;;;;;1999.90;999.90;;;17.20;99.90;;;;;;5052050;28;20187;-59
2022/06/27 02:54:11;;;;;;;1999.90;999.90;;;17.20;99.90;;;;;;5052140;28;20193;-60
2022/06/27 02:56:43;;;;;;;1999.90;999.90;;;17.30;99.90;;;;;;5051941;28;20204;-60
2022/06/27 02:59:17;;;;;;;1999.90;999.90;;;17.30;99.90;;;;;;5052132;28;20183;-59
2022/06/27 03:01:46;;;;;;;1999.90;999.90;;;17.30;99.90;;;;;;5051703;28;20540;-59
2022/06/27 03:04:15;;;;;;;1999.90;999.90;;;17.30;99.90;;;;;;5052059;28;20207;-58
2022/06/27 03:06:43;;;;;;;1999.90;999.90;;;17.40;99.90;;;;;;5051960;28;20202;-60
2022/06/27 03:09:10;;;;;;;1999.90;999.90;;;17.30;99.90;;;;;;5051810;28;20233;-59
2022/06/27 03:11:37;;;;;;;1999.90;999.90;;;17.30;99.90;;;;;;5051931;28;20209;-60
2022/06/27 03:14:04;;;;;;;1999.90;999.90;;;17.30;99.90;;;;;;5055082;28;20561;-60
2022/06/27 03:16:31;;;;;;;1999.90;999.90;;;17.30;99.90;;;;;;5055519;28;20237;-59
2022/06/27 03:18:58;;;;;;;1999.90;999.90;;;17.20;99.90;;;;;;5055859;28;20210;-60
2022/06/27 03:21:27;;;;;;;1999.90;999.90;;;17.20;99.90;;;;;;5055738;28;20550;-59
2022/06/27 03:23:54;;;;;;;1999.90;999.90;;;17.20;99.90;;;;;;5055795;28;20205;-59
2022/06/27 03:26:21;;;;;;;1999.90;999.90;;;17.20;99.90;;;;;;5055463;28;20723;-59
2022/06/27 03:28:48;;;;;;;1999.90;999.90;;;17.20;99.90;;;;;;5055342;28;20199;-59
2022/06/27 03:31:15;;;;;;;1999.90;999.90;;;17.10;99.90;;;;;;5055390;28;20565;-59
2022/06/27 03:33:43;;;;;;;1999.90;999.90;;;17.10;99.90;;;;;;5055328;28;20221;-59
2022/06/27 03:36:11;;;;;;;1999.90;999.90;;;17.10;99.90;;;;;;5055294;28;20196;-59
2022/06/27 03:38:39;;;;;;;1999.90;999.90;;;17.00;99.90;;;;;;5055459;28;20224;-59
2022/06/27 03:41:06;;;;;;;1999.90;999.90;;;17.00;99.90;;;;;;5055496;28;20202;-60
2022/06/27 03:43:33;;;;;;;1999.90;999.90;;;17.00;99.90;;;;;;5055073;28;20691;-60
2022/06/27 03:46:00;;;;;;;1999.90;999.90;;;16.90;99.90;;;;;;5055347;28;20202;-59
2022/06/27 03:51:12;;;;;;;1999.90;999.90;;;16.80;99.90;;;;;;5055094;28;20534;-59
2022/06/27 03:53:40;;;;;;;1999.90;999.90;;;16.70;99.90;;;;;;5055112;28;20514;-59
2022/06/27 03:56:07;;;;;;;1999.90;999.90;;;16.60;99.90;;;;;;5055564;28;20192;-60
2022/06/27 03:58:34;;;;;;;1999.90;999.90;;;16.50;99.90;;;;;;5055063;28;20206;-60
2022/06/27 04:01:03;;;;;;;1999.90;999.90;;;16.60;99.90;;;;;;5054904;28;20271;-59
2022/06/27 04:03:30;;;;;;;1999.90;999.90;;;16.70;99.90;;;;;;5055292;28;20202;-59
2022/06/27 04:05:58;;;;;;;1999.90;999.90;;;16.80;99.90;;;;;;5054879;28;20676;-59
2022/06/27 04:08:27;;;;;;;1999.90;999.90;;;16.80;99.90;;;;;;5054871;28;20700;-59
2022/06/27 04:10:55;;;;;;;1999.90;999.90;;;16.90;99.90;;;;;;5054733;28;20184;-60
2022/06/27 04:13:23;;;;;;;1999.90;999.90;;;17.00;99.90;;;;;;5054528;28;20191;-60
2022/06/27 04:15:50;;;;;;;1999.90;999.90;;;17.00;99.90;;;;;;5054790;28;20207;-60
2022/06/27 04:18:17;;;;;;;1999.90;999.90;;;17.10;99.90;;;;;;5054346;28;20219;-60
2022/06/27 04:20:44;;;;;;;1999.90;999.90;;;17.20;99.90;;;;;;5054627;28;20198;-60
2022/06/27 04:23:11;;;;;;;1999.90;999.90;;;17.30;99.90;;;;;;5054221;28;20210;-60
2022/06/27 04:25:38;;;;;;;1999.90;999.90;;;17.20;99.90;;;;;;5054579;28;20226;-59
2022/06/27 04:28:06;;;;;;;1999.90;999.90;;;17.20;99.90;;;;;;5054466;28;20205;-60
2022/06/27 04:30:34;;;;;;;1999.90;999.90;;;17.20;99.90;;;;;;5054500;28;20203;-59
2022/06/27 04:33:01;;;;;;;1999.90;999.90;;;17.20;99.90;;;;;;5054501;28;20208;-59
2022/06/27 04:35:28;;;;;;;1999.90;999.90;;;17.40;99.90;;;;;;5054531;28;20189;-60
2022/06/27 04:37:56;;;;;;;1999.90;999.90;;;17.40;99.90;;;;;;5054561;28;20219;-60
2022/06/27 04:40:23;;;;;;;1999.90;999.90;;;17.40;99.90;;;;;;5054042;28;20217;-60
2022/06/27 04:42:50;;;;;;;1999.90;999.90;;;17.40;99.90;;;;;;5054030;28;20196;-60
2022/06/27 04:45:18;;;;;;;1999.90;999.90;;;17.40;99.90;;;;;;5053975;28;20690;-60
2022/06/27 04:47:47;;;;;;;1999.90;999.90;;;17.50;99.90;;;;;;5054372;28;20191;-60
2022/06/27 04:50:18;;;;;;;1999.90;999.90;;;17.50;99.90;;;;;;5054156;28;20199;-59
2022/06/27 04:52:47;;;;;;;1999.90;999.90;;;17.50;99.90;;;;;;5054219;28;20187;-61
2022/06/27 04:55:15;;;;;;;1999.90;999.90;;;17.50;99.90;;;;;;5053985;28;20252;-60
2022/06/27 04:57:43;;;;;;;1999.90;999.90;;;17.50;99.90;;;;;;5053466;28;20684;-60
2022/06/27 05:00:14;;;;;;;1999.90;999.90;;;17.50;99.90;;;;;;5053666;28;20205;-61
2022/06/27 05:02:43;;;;;;;1999.90;999.90;;;17.50;99.90;;;;;;5053477;28;20183;-60
2022/06/27 05:05:10;;;;;;;1999.90;999.90;;;17.50;99.90;;;;;;5053555;28;20718;-59
2022/06/27 05:07:37;;;;;;;1999.90;999.90;;;17.60;99.90;;;;;;5053492;28;20252;-60
2022/06/27 05:10:06;;;;;;;1999.90;999.90;;;17.60;99.90;;;;;;5053334;28;20257;-60
2022/06/27 05:12:33;;;;;;;1999.90;999.90;;;17.60;99.90;;;;;;5053872;28;20191;-61
2022/06/27 05:15:00;;;;;;;1999.90;999.90;;;17.60;99.90;;;;;;5053721;28;20203;-60
2022/06/27 05:17:27;;;;;;;1999.90;999.90;;;17.60;99.90;;;;;;5053585;28;20223;-59
2022/06/27 05:19:56;;;;;;;1999.90;999.90;;;17.60;99.90;;;;;;5053635;28;20214;-59
2022/06/27 05:22:23;;;;;;;1999.90;999.90;;;17.60;99.90;;;;;;5053449;28;20207;-60
2022/06/27 05:24:50;;;;;;;1999.90;999.90;;;17.60;99.90;;;;;;5053189;28;20737;-60
2022/06/27 05:27:18;;;;;;;1999.90;999.90;;;17.60;99.90;;;;;;5053316;28;20206;-60
2022/06/27 05:29:45;;;;;;;1999.90;999.90;;;17.60;99.90;;;;;;5053449;28;20204;-59
2022/06/27 05:32:13;;;;;;;1999.90;999.90;;;17.60;99.90;;;;;;5053017;28;20203;-60
2022/06/27 05:34:41;;;;;;;1999.90;999.90;;;17.60;99.90;;;;;;5053026;28;20195;-60
2022/06/27 05:37:10;;;;;;;1999.90;999.90;;;17.60;99.90;;;;;;5052766;28;20204;-60
2022/06/27 05:39:37;;;;;;;1999.90;999.90;;;17.80;99.90;;;;;;5052817;28;20284;-60
2022/06/27 05:42:05;;;;;;;1999.90;999.90;;;17.90;99.90;;;;;;5052737;28;20191;-60
2022/06/27 05:44:32;;;;;;;1999.90;999.90;;;18.60;99.90;;;;;;5053206;28;20209;-62
2022/06/27 05:46:59;;;;;;;1999.90;999.90;;;19.10;99.90;;;;;;5053091;28;20194;-61
2022/06/27 05:49:27;;;;;;;1999.90;999.90;;;19.10;99.90;;;;;;5053018;28;20228;-61
2022/06/27 05:51:55;;;;;;;1999.90;999.90;;;19.10;99.90;;;;;;5052587;28;20646;-61
2022/06/27 05:54:25;;;;;;;1999.90;999.90;;;19.20;99.90;;;;;;5052742;28;20206;-59
2022/06/27 05:56:52;;;;;;;1999.90;999.90;;;19.20;99.90;;;;;;5052404;28;20202;-60
2022/06/27 05:59:20;;;;;;;1999.90;999.90;;;19.00;99.90;;;;;;5052798;28;20228;-59
2022/06/27 06:01:48;;;;;;;1999.90;999.90;;;19.00;99.90;;;;;;5053119;28;20202;-59
2022/06/27 06:04:16;;;;;;;1999.90;999.90;;;18.80;99.90;;;;;;5052677;28;20207;-58
2022/06/27 06:06:43;;;;;;;1999.90;999.90;;;18.70;99.90;;;;;;5052497;28;20206;-59
2022/06/27 06:09:12;;;;;;;1999.90;999.90;;;18.70;99.90;;;;;;5052370;28;20232;-59
2022/06/27 06:11:40;;;;;;;1999.90;999.90;;;18.60;99.90;;;;;;5052312;28;20200;-60
2022/06/27 06:14:08;;;;;;;1999.90;999.90;;;18.80;99.90;;;;;;5052627;28;20217;-60
2022/06/27 06:16:36;;;;;;;1999.90;999.90;;;18.70;99.90;;;;;;5052294;28;20204;-59
2022/06/27 06:19:04;;;;;;;1999.90;999.90;;;18.80;99.90;;;;;;5052477;28;20212;-59
2022/06/27 06:21:31;;;;;;;1999.90;999.90;;;18.80;99.90;;;;;;5052078;28;20390;-59
2022/06/27 06:23:59;;;;;;;1999.90;999.90;;;18.80;99.90;;;;;;5052440;28;20214;-59
2022/06/27 06:26:26;;;;;;;1999.90;999.90;;;18.80;99.90;;;;;;5052320;28;20196;-60
2022/06/27 06:28:55;;;;;;;1999.90;999.90;;;18.70;99.90;;;;;;5052054;28;20212;-59
2022/06/27 06:31:23;;;;;;;1999.90;999.90;;;18.80;99.90;;;;;;5052319;28;20203;-59
2022/06/27 06:33:51;;;;;;;1999.90;999.90;;;18.70;99.90;;;;;;5052383;28;20199;-59
2022/06/27 06:36:19;;;;;;;1999.90;999.90;;;18.60;99.90;;;;;;5052053;28;20208;-59
2022/06/27 06:38:46;;;;;;;1999.90;999.90;;;18.50;99.90;;;;;;5051842;28;20216;-60
2022/06/27 06:41:14;;;;;;;1999.90;999.90;;;18.50;99.90;;;;;;5051917;28;20191;-60
2022/06/27 06:43:42;;;;;;;1999.90;999.90;;;18.50;99.90;;;;;;5052272;28;20237;-60
2022/06/27 06:46:10;;;;;;;1999.90;999.90;;;18.60;99.90;;;;;;5052202;28;20570;-60
2022/06/27 06:48:38;;;;;;;1999.90;999.90;;;18.70;99.90;;;;;;5050886;28;20203;-60
2022/06/27 06:51:05;;;;;;;1999.90;999.90;;;18.60;99.90;;;;;;5051826;28;20199;-60
2022/06/27 06:53:33;;;;;;;1999.90;999.90;;;18.70;99.90;;;;;;5052090;28;20192;-60
2022/06/27 06:56:00;;;;;;;1999.90;999.90;;;18.80;99.90;;;;;;5051789;28;20196;-60
2022/06/27 06:58:27;;;;;;;1999.90;999.90;;;18.80;99.90;;;;;;5051553;28;20224;-60
2022/06/27 07:00:56;;;;;;;1999.90;999.90;;;18.90;99.90;;;;;;5052159;28;20197;-60
2022/06/27 07:03:25;;;;;;;1999.90;999.90;;;19.00;99.90;;;;;;5051921;28;20195;-59
2022/06/27 07:05:53;;;;;;;1999.90;999.90;;;19.20;99.90;;;;;;5052110;28;20221;-59
2022/06/27 07:08:20;;;;;;;1999.90;999.90;;;19.20;99.90;;;;;;5051902;28;20198;-59
2022/06/27 07:10:48;;;;;;;1999.90;999.90;;;19.20;99.90;;;;;;5052001;28;20200;-59
2022/06/27 07:13:15;;;;;;;1999.90;999.90;;;19.20;99.90;;;;;;5051908;28;20201;-60
2022/06/27 07:15:43;;;;;;;1999.90;999.90;;;19.30;99.90;;;;;;5051904;28;20196;-60
2022/06/27 07:18:10;;;;;;;1999.90;999.90;;;19.40;99.90;;;;;;5051853;28;20211;-60
2022/06/27 07:20:39;;;;;;;1999.90;999.90;;;19.50;99.90;;;;;;5051556;28;20210;-60
2022/06/27 07:23:08;;;;;;;1999.90;999.90;;;19.80;99.90;;;;;;5051914;28;20203;-59
2022/06/27 07:25:36;;;;;;;1999.90;999.90;;;20.20;99.90;;;;;;5051384;28;20203;-60
2022/06/27 07:28:03;;;;;;;1999.90;999.90;;;20.10;99.90;;;;;;5051134;28;20688;-59
2022/06/27 07:30:30;;;;;;;1999.90;999.90;;;20.20;99.90;;;;;;5051228;28;20677;-59
2022/06/27 07:32:58;;;;;;;1999.90;999.90;;;19.90;99.90;;;;;;5051521;28;20198;-59
2022/06/27 07:35:27;;;;;;;1999.90;999.90;;;20.00;99.90;;;;;;5051802;28;20208;-59
2022/06/27 07:37:55;;;;;;;1999.90;999.90;;;19.90;99.90;;;;;;5051588;28;20202;-59
2022/06/27 07:40:23;;;;;;;1999.90;999.90;;;19.80;99.90;;;;;;5051734;28;20194;-61
2022/06/27 07:42:53;;;;;;;1999.90;999.90;;;20.20;99.90;;;;;;5051155;28;20693;-60
2022/06/27 07:45:22;;;;;;;1999.90;999.90;;;20.40;99.90;;;;;;5051379;28;20200;-59
2022/06/27 07:47:49;;;;;;;1999.90;999.90;;;20.40;99.90;;;;;;5051181;28;20206;-59
2022/06/27 07:50:36;;;;;;;1999.90;999.90;;;20.10;99.90;;;;;;5051419;28;20203;-60
2022/06/27 07:53:16;;;;;;;1999.90;999.90;;;20.00;99.90;;;;;;5051674;28;20187;-59
2022/06/27 07:55:46;;;;;;;1999.90;999.90;;;19.70;99.90;;;;;;5051099;28;20211;-60
2022/06/27 07:58:16;;;;;;;1999.90;999.90;;;19.60;99.90;;;;;;5050982;28;20284;-60
2022/06/27 08:00:45;;;;;;;1999.90;999.90;;;19.40;99.90;;;;;;5054749;28;20195;-59
2022/06/27 08:05:58;;;;;;;1999.90;999.90;;;19.50;99.90;;;;;;5054753;28;20172;-59
2022/06/27 08:08:28;;;;;;;1999.90;999.90;;;19.70;99.90;;;;;;5054409;28;20198;-59
2022/06/27 08:10:56;;;;;;;1999.90;999.90;;;19.80;99.90;;;;;;5054334;28;20180;-60
2022/06/27 08:13:23;;;;;;;1999.90;999.90;;;20.00;99.90;;;;;;5054823;28;20200;-60
2022/06/27 08:15:50;;;;;;;1999.90;999.90;;;20.20;99.90;;;;;;5054902;28;20694;-60
2022/06/27 08:18:18;;;;;;;1999.90;999.90;;;20.20;99.90;;;;;;5054742;28;20192;-59
2022/06/27 08:20:45;;;;;;;1999.90;999.90;;;20.30;99.90;;;;;;5054244;28;20203;-60
2022/06/27 08:23:13;;;;;;;1999.90;999.90;;;20.40;99.90;;;;;;5054773;28;20196;-60
2022/06/27 08:25:42;;;;;;;1999.90;999.90;;;20.50;99.90;;;;;;5054412;28;20671;-60
2022/06/27 08:28:10;;;;;;;1999.90;999.90;;;20.50;99.90;;;;;;5053964;28;20557;-60
2022/06/27 08:30:38;;;;;;;1999.90;999.90;;;20.60;99.90;;;;;;5054419;28;20595;-60
2022/06/27 08:33:06;;;;;;;1999.90;999.90;;;20.50;99.90;;;;;;5054391;28;20536;-59
2022/06/27 08:35:33;;;;;;;1999.90;999.90;;;20.30;99.90;;;;;;5053986;28;20203;-59
2022/06/27 08:38:00;;;;;;;1999.90;999.90;;;20.30;99.90;;;;;;5054223;28;20210;-59
2022/06/27 08:40:28;;;;;;;1999.90;999.90;;;20.40;99.90;;;;;;5054108;28;20212;-60
2022/06/27 08:42:58;;;;;;;1999.90;999.90;;;20.60;99.90;;;;;;5054611;28;20210;-59
2022/06/27 08:45:28;;;;;;;1999.90;999.90;;;20.40;99.90;;;;;;5054418;28;20203;-60
2022/06/27 08:47:59;;;;;;;1999.90;999.90;;;20.50;99.90;;;;;;5053942;28;20510;-60
2022/06/27 08:50:26;;;;;;;1999.90;999.90;;;20.40;99.90;;;;;;5054065;28;20174;-61
2022/06/27 08:52:58;;;;;;;1999.90;999.90;;;20.40;99.90;;;;;;5053893;28;20244;-60
2022/06/27 08:55:25;;;;;;;1999.90;999.90;;;20.60;99.90;;;;;;5054226;28;20237;-60
2022/06/27 08:57:53;;;;;;;1999.90;999.90;;;20.80;99.90;;;;;;5053920;28;20200;-61
2022/06/27 09:00:23;;;;;;;1999.90;999.90;;;20.70;99.90;;;;;;5053612;28;20220;-61
2022/06/27 09:02:51;;;;;;;1999.90;999.90;;;20.80;99.90;;;;;;5053772;28;20237;-60
2022/06/27 09:05:24;;;;;;;1999.90;999.90;;;20.80;99.90;;;;;;5053945;28;20199;-60
2022/06/27 09:07:53;;;;;;;1999.90;999.90;;;20.90;99.90;;;;;;5053669;28;20546;-62
2022/06/27 09:10:29;;;;;;;1999.90;999.90;;;21.20;99.90;;;;;;5052535;28;20242;-62
2022/06/27 09:12:58;;;;;;;1999.90;999.90;;;21.00;99.90;;;;;;5053526;28;20633;-62
2022/06/27 09:15:45;;;;;;;1999.90;999.90;;;20.90;99.90;;;;;;5053837;28;20210;-61
2022/06/27 09:18:14;;;;;;;1999.90;999.90;;;20.80;99.90;;;;;;5053713;28;20217;-61
2022/06/27 09:20:47;;;;;;;1999.90;999.90;;;20.90;99.90;;;;;;5053243;28;20211;-61
2022/06/27 09:23:39;;;;;;;1999.90;999.90;;;21.30;99.90;;;;;;5053603;28;20203;-60
2022/06/27 09:26:09;;;;;;;1999.90;999.90;;;21.40;99.90;;;;;;5053468;28;20191;-61
2022/06/27 09:28:51;;;;;;;1999.90;999.90;;;21.40;99.90;;;;;;5053136;28;20271;-60
2022/06/27 09:31:39;;;;;;;1999.90;999.90;;;21.20;99.90;;;;;;5053241;28;20194;-61
2022/06/27 09:34:16;;;;;;;1999.90;999.90;;;21.10;99.90;;;;;;5053368;28;20208;-60
2022/06/27 09:36:50;;;;;;;1999.90;999.90;;;21.00;99.90;;;;;;5053624;28;20203;-61
2022/06/27 09:39:25;;;;;;;1999.90;999.90;;;21.30;99.90;;;;;;5052906;28;20209;-61
2022/06/27 09:41:58;;;;;;;1999.90;999.90;;;21.30;99.90;;;;;;5052999;28;20194;-60
2022/06/27 09:44:28;;;;;;;1999.90;999.90;;;21.20;99.90;;;;;;5052989;28;20686;-60
2022/06/27 09:47:04;;;;;;;1999.90;999.90;;;21.10;99.90;;;;;;5053201;28;20188;-61
2022/06/27 09:49:34;;;;;;;1999.90;999.90;;;21.20;99.90;;;;;;5052725;28;20188;-60
2022/06/27 09:52:06;;;;;;;1999.90;999.90;;;21.30;99.90;;;;;;5052986;28;20199;-60
2022/06/27 09:54:35;;;;;;;1999.90;999.90;;;21.60;99.90;;;;;;5052796;28;20558;-60
2022/06/27 09:57:04;;;;;;;1999.90;999.90;;;21.50;99.90;;;;;;5052756;28;20202;-60
2022/06/27 09:59:31;;;;;;;1999.90;999.90;;;21.70;99.90;;;;;;5052518;28;20632;-60
2022/06/27 10:02:01;;;;;;;1999.90;999.90;;;21.80;99.90;;;;;;5052866;28;20191;-60
2022/06/27 10:04:30;;;;;;;1999.90;999.90;;;22.00;99.90;;;;;;5053161;28;20591;-60
2022/06/27 10:06:59;;;;;;;1999.90;999.90;;;21.60;99.90;;;;;;5052872;28;20195;-60
2022/06/27 10:09:29;;;;;;;1999.90;999.90;;;21.70;99.90;;;;;;5052192;28;20751;-60
2022/06/27 10:12:22;;;;;;;1999.90;999.90;;;22.10;99.90;;;;;;5052653;28;20212;-60
2022/06/27 10:15:23;;;;;;;1999.90;999.90;;;22.20;99.90;;;;;;5052553;28;20199;-60
2022/06/27 10:17:56;;;;;;;1999.90;999.90;;;22.40;99.90;;;;;;5049202;28;20233;-60
2022/06/27 10:20:35;;;;;;;1999.90;999.90;;;22.50;99.90;;;;;;5052130;28;20208;-60
2022/06/27 10:23:27;;;;;;;1999.90;999.90;;;23.20;1.00;;;;;;5052257;28;20192;-60
2022/06/27 10:25:56;;;;;;;1999.90;999.90;;;23.30;1.00;;;;;;5052018;28;20534;-61
2022/06/27 10:28:23;;;;;;;1999.90;999.90;;;23.20;99.90;;;;;;5052077;28;20210;-60
2022/06/27 10:30:52;;;;;;;1999.90;999.90;;;22.80;99.90;;;;;;5052224;28;20206;-61
2022/06/27 10:33:41;;;;;;;1999.90;999.90;;;23.10;1.00;;;;;;5052337;28;20225;-60
2022/06/27 10:36:18;;;;;;;1999.90;999.90;;;23.30;99.90;;;;;;5052302;28;20199;-60
2022/06/27 10:38:48;;;;;;;1999.90;999.90;;;23.30;89.00;;;;;;5051980;28;20214;-60
2022/06/27 10:41:38;;;;;;;1999.90;999.90;;;23.40;1.00;;;;;;5051948;28;20211;-60
2022/06/27 10:44:07;;;;;;;1999.90;999.90;;;23.50;1.00;;;;;;5051966;28;20200;-60
2022/06/27 10:46:42;;;;;;;1999.90;999.90;;;23.60;1.00;;;;;;5052058;28;20759;-60
2022/06/27 10:49:28;;;;;;;1999.90;999.90;;;23.70;99.90;;;;;;5052247;28;20195;-61
2022/06/27 10:52:22;;;;;;;1999.90;999.90;;;23.90;1.00;;;;;;5051888;28;20194;-61
2022/06/27 10:54:53;;;;;;;1999.90;999.90;;;23.90;1.00;;;;;;5051871;28;20190;-61
2022/06/27 10:57:38;;;;;;;1999.90;999.90;;;24.00;1.00;;;;;;5052846;28;20258;-60
2022/06/27 11:00:06;;;;;;;1999.90;999.90;;;24.00;1.00;;;;;;5051791;28;20199;-60
2022/06/27 11:02:34;;;;;;;1999.90;999.90;;;23.80;99.90;;;;;;5051806;28;20668;-60
2022/06/27 11:05:03;;;;;;;1999.90;999.90;;;23.60;1.00;;;;;;5051649;28;20195;-60
2022/06/27 11:07:30;;;;;;;1999.90;999.90;;;23.80;1.00;;;;;;5051742;28;20200;-62
2022/06/27 11:09:57;;;;;;;1999.90;999.90;;;24.00;99.90;;;;;;5051549;28;20730;-61
2022/06/27 11:12:35;;;;;;;1999.90;999.90;;;24.40;99.90;;;;;;5051980;28;20205;-61
2022/06/27 11:15:03;;;;;;;1999.90;999.90;;;23.80;1.00;;;;;;5051702;28;20188;-61
2022/06/27 11:17:39;;;;;;;1999.90;999.90;;;23.30;1.00;;;;;;5051652;28;20409;-61
2022/06/27 11:20:14;;;;;;;1999.90;999.90;;;22.60;1.00;;;;;;5051644;28;20595;-60
2022/06/27 11:22:42;;;;;;;1999.90;999.90;;;22.40;1.00;;;;;;5051805;28;20179;-60
2022/06/27 11:25:10;;;;;;;1999.90;999.90;;;22.30;99.90;;;;;;5051930;28;20256;-60
2022/06/27 11:27:48;;;;;;;1999.90;999.90;;;22.30;99.90;;;;;;5051485;28;20280;-61
2022/06/27 11:33:16;;;;;;;1999.90;999.90;;;22.30;99.90;;;;;;5051937;28;20186;-61
2022/06/27 11:35:45;;;;;;;1999.90;999.90;;;22.30;99.90;;;;;;5055299;28;20575;-60
2022/06/27 11:38:12;;;;;;;1999.90;999.90;;;22.40;99.90;;;;;;5055665;28;20200;-60
2022/06/27 11:40:39;;;;;;;1999.90;999.90;;;22.30;1.00;;;;;;5055443;28;20215;-60
2022/06/27 11:43:08;;;;;;;1999.90;999.90;;;22.10;99.90;;;;;;5055159;28;20207;-60
2022/06/27 11:45:42;;;;;;;1999.90;999.90;;;22.10;99.90;;;;;;5055122;28;20200;-60
2022/06/27 11:48:14;;;;;;;1999.90;999.90;;;21.90;99.90;;;;;;5055034;28;20657;-60
2022/06/27 11:50:42;;;;;;;1999.90;999.90;;;21.80;1.00;;;;;;5054909;28;20252;-60
2022/06/27 11:53:10;;;;;;;1999.90;999.90;;;22.10;99.90;;;;;;5055011;28;20687;-61
2022/06/27 11:55:37;;;;;;;1999.90;999.90;;;22.10;99.90;;;;;;5055375;28;20195;-60
2022/06/27 11:58:05;;;;;;;1999.90;999.90;;;22.20;1.00;;;;;;5054820;28;20195;-60
2022/06/27 12:00:34;;;;;;;1999.90;999.90;;;22.40;45.70;;;;;;5055240;28;20215;-61
2022/06/27 12:03:06;;;;;;;1999.90;999.90;;;22.50;1.00;;;;;;5055123;28;20192;-60
2022/06/27 12:05:34;;;;;;;1999.90;999.90;;;22.70;99.90;;;;;;5054988;28;20200;-60
2022/06/27 12:08:05;;;;;;;1999.90;999.90;;;22.90;1.00;;;;;;5055002;28;20192;-60
2022/06/27 12:13:35;;;;;;;1999.90;999.90;;;22.80;99.90;;;;;;5054353;28;20199;-61
2022/06/27 12:16:03;;;;;;;1999.90;999.90;;;22.70;1.00;;;;;;5054861;28;20200;-61
2022/06/27 12:18:33;;;;;;;1999.90;999.90;;;22.90;1.00;;;;;;5054545;28;20689;-61
2022/06/27 12:21:01;;;;;;;1999.90;999.90;;;23.40;99.90;;;;;;5054433;28;20211;-61